Página principal
METAR-TAF:

METAR-TAF

Aeroportos :

Chongqing, China

Aeroporto Internacional de Chongqing Jiangbei

latitude: 29-31N, longitude: 106-29E, altura: 351 m

Observação actual do tempo

O boletim foi feito há 10 minutos, às 08:00 UTC
Vento 6 kt de este, variando entre es-nordeste e sudeste
Temperatura 37°C
Humidade 45%
Pressão 999 hPa
Visibilidade 10 km ou mais
Nuvens dispersasa uma altura de 3300 ft

METAR: ZUCK 210800Z 09003MPS 060V130 9999 SCT033 37/23 Q0999 NOSIG

Hora: 16:10 (08:10 UTC)

Previsão

O boletim foi feito há 5 horas e 5 minutos, às 03:05 UTC
Previsão válida de 21 às 06 UTC a 22 às 06 UTC
Vento 6 kt de su-sudoeste
Visibilidade: 6000 m
Nuvens dispersasa uma altura de 4000 ft

TAF: ZUCK 210305Z 2106/2206 21003MPS 6000 SCT040 TX39/2108Z TN28/2122Z

Observações e previsões do tempo de mais de 4000 aeroportos (mensagens METAR e TAF).

As estações disponíveis são os pontos amarelos e vermelhos sobre o mapa.

Mova o rato sobre o mapa para ver o nome da estação.

Depois clique no ponto para visualizar as observações e previsões meteorológicas.

Para alterar o mapa : clique nos botões verdes com uma cruz preta para aumentar o zoom; no botão verde com uma pitada de zoom; ou nas setas verdes para mapas adjacentes.


METAR-TAF: